sensor_id;sensor_type;location;lat;lon;timestamp;P1;durP1;ratioP1;P2;durP2;ratioP2
86321;SDS011;76978;42.798;23.336;2024-03-23T00:54:35;24.05;;;11.00;;
86321;SDS011;76978;42.798;23.336;2024-03-23T00:57:00;30.95;;;11.77;;
86321;SDS011;76978;42.798;23.336;2024-03-23T00:59:26;25.35;;;9.45;;
86321;SDS011;76978;42.798;23.336;2024-03-23T01:01:53;23.00;;;8.65;;
86321;SDS011;76978;42.798;23.336;2024-03-23T01:04:19;12.40;;;4.85;;
86321;SDS011;76978;42.798;23.336;2024-03-23T01:06:44;4.78;;;2.60;;
86321;SDS011;76978;42.798;23.336;2024-03-23T01:09:10;4.88;;;2.22;;
86321;SDS011;76978;42.798;23.336;2024-03-23T01:11:36;7.95;;;4.57;;
86321;SDS011;76978;42.798;23.336;2024-03-23T01:14:02;9.85;;;6.40;;
86321;SDS011;76978;42.798;23.336;2024-03-23T01:16:27;11.82;;;5.15;;
86321;SDS011;76978;42.798;23.336;2024-03-23T01:18:53;6.97;;;3.75;;
86321;SDS011;76978;42.798;23.336;2024-03-23T01:21:18;10.38;;;4.32;;
86321;SDS011;76978;42.798;23.336;2024-03-23T01:23:44;5.78;;;3.55;;
86321;SDS011;76978;42.798;23.336;2024-03-23T01:26:09;4.28;;;2.47;;
86321;SDS011;76978;42.798;23.336;2024-03-23T01:28:35;5.57;;;3.20;;
86321;SDS011;76978;42.798;23.336;2024-03-23T01:31:00;5.30;;;2.78;;
86321;SDS011;76978;42.798;23.336;2024-03-23T01:33:26;4.15;;;2.50;;
86321;SDS011;76978;42.798;23.336;2024-03-23T01:35:51;9.57;;;3.08;;
86321;SDS011;76978;42.798;23.336;2024-03-23T01:38:16;5.13;;;3.03;;
86321;SDS011;76978;42.798;23.336;2024-03-23T01:40:42;6.00;;;2.78;;
86321;SDS011;76978;42.798;23.336;2024-03-23T01:43:07;7.32;;;3.00;;
86321;SDS011;76978;42.798;23.336;2024-03-23T01:45:33;5.65;;;3.72;;
86321;SDS011;76978;42.798;23.336;2024-03-23T01:47:59;5.95;;;3.20;;
86321;SDS011;76978;42.798;23.336;2024-03-23T01:50:25;5.57;;;3.20;;
86321;SDS011;76978;42.798;23.336;2024-03-23T01:52:52;5.35;;;2.53;;
86321;SDS011;76978;42.798;23.336;2024-03-23T01:55:18;3.33;;;2.45;;
86321;SDS011;76978;42.798;23.336;2024-03-23T01:57:43;4.88;;;2.70;;
86321;SDS011;76978;42.798;23.336;2024-03-23T02:00:09;5.30;;;2.55;;
86321;SDS011;76978;42.798;23.336;2024-03-23T02:02:40;4.85;;;2.63;;
86321;SDS011;76978;42.798;23.336;2024-03-23T02:05:09;4.68;;;2.78;;
86321;SDS011;76978;42.798;23.336;2024-03-23T02:07:35;5.57;;;2.30;;
86321;SDS011;76978;42.798;23.336;2024-03-23T02:10:02;5.57;;;2.38;;
86321;SDS011;76978;42.798;23.336;2024-03-23T02:12:28;5.38;;;2.75;;
86321;SDS011;76978;42.798;23.336;2024-03-23T02:14:53;2.70;;;2.13;;
86321;SDS011;76978;42.798;23.336;2024-03-23T02:17:18;5.10;;;2.83;;
86321;SDS011;76978;42.798;23.336;2024-03-23T02:19:44;7.10;;;3.55;;
86321;SDS011;76978;42.798;23.336;2024-03-23T02:22:11;8.70;;;4.05;;
86321;SDS011;76978;42.798;23.336;2024-03-23T02:24:37;7.00;;;3.85;;
86321;SDS011;76978;42.798;23.336;2024-03-23T02:27:02;7.43;;;3.88;;
86321;SDS011;76978;42.798;23.336;2024-03-23T02:29:28;8.82;;;4.57;;
86321;SDS011;76978;42.798;23.336;2024-03-23T02:31:53;4.85;;;3.40;;
86321;SDS011;76978;42.798;23.336;2024-03-23T02:34:18;6.72;;;3.92;;
86321;SDS011;76978;42.798;23.336;2024-03-23T02:36:44;4.13;;;2.70;;
86321;SDS011;76978;42.798;23.336;2024-03-23T02:39:09;8.40;;;3.60;;
86321;SDS011;76978;42.798;23.336;2024-03-23T02:41:35;7.97;;;4.00;;
86321;SDS011;76978;42.798;23.336;2024-03-23T02:44:01;10.48;;;4.40;;
86321;SDS011;76978;42.798;23.336;2024-03-23T02:46:27;13.38;;;7.13;;
86321;SDS011;76978;42.798;23.336;2024-03-23T02:48:52;17.23;;;8.18;;
86321;SDS011;76978;42.798;23.336;2024-03-23T02:51:17;18.80;;;8.27;;
86321;SDS011;76978;42.798;23.336;2024-03-23T02:53:43;9.50;;;5.40;;
86321;SDS011;76978;42.798;23.336;2024-03-23T02:56:08;9.68;;;4.63;;
86321;SDS011;76978;42.798;23.336;2024-03-23T02:58:34;11.52;;;4.43;;
86321;SDS011;76978;42.798;23.336;2024-03-23T03:00:59;9.82;;;5.00;;
86321;SDS011;76978;42.798;23.336;2024-03-23T03:03:25;10.70;;;4.97;;
86321;SDS011;76978;42.798;23.336;2024-03-23T03:05:56;16.33;;;5.65;;
86321;SDS011;76978;42.798;23.336;2024-03-23T03:08:22;10.70;;;5.32;;
86321;SDS011;76978;42.798;23.336;2024-03-23T03:10:47;9.63;;;4.93;;
86321;SDS011;76978;42.798;23.336;2024-03-23T03:13:12;9.45;;;4.70;;
86321;SDS011;76978;42.798;23.336;2024-03-23T03:15:39;10.00;;;5.82;;
86321;SDS011;76978;42.798;23.336;2024-03-23T03:18:05;9.43;;;5.03;;
86321;SDS011;76978;42.798;23.336;2024-03-23T03:20:31;14.60;;;5.03;;
86321;SDS011;76978;42.798;23.336;2024-03-23T03:22:56;7.55;;;4.53;;
86321;SDS011;76978;42.798;23.336;2024-03-23T03:25:22;13.15;;;5.53;;
86321;SDS011;76978;42.798;23.336;2024-03-23T03:27:47;11.93;;;5.25;;
86321;SDS011;76978;42.798;23.336;2024-03-23T03:30:13;12.55;;;4.82;;
86321;SDS011;76978;42.798;23.336;2024-03-23T03:32:38;10.93;;;6.00;;
86321;SDS011;76978;42.798;23.336;2024-03-23T03:35:04;9.63;;;5.20;;
86321;SDS011;76978;42.798;23.336;2024-03-23T03:37:29;9.80;;;5.55;;
86321;SDS011;76978;42.798;23.336;2024-03-23T03:39:55;12.85;;;6.32;;
86321;SDS011;76978;42.798;23.336;2024-03-23T03:42:20;9.57;;;5.65;;
86321;SDS011;76978;42.798;23.336;2024-03-23T03:44:46;9.63;;;4.65;;
86321;SDS011;76978;42.798;23.336;2024-03-23T03:47:11;8.95;;;4.30;;
86321;SDS011;76978;42.798;23.336;2024-03-23T03:49:37;11.43;;;4.30;;
86321;SDS011;76978;42.798;23.336;2024-03-23T03:52:02;9.20;;;4.57;;
86321;SDS011;76978;42.798;23.336;2024-03-23T03:54:28;10.10;;;4.88;;
86321;SDS011;76978;42.798;23.336;2024-03-23T03:56:53;9.02;;;4.25;;
86321;SDS011;76978;42.798;23.336;2024-03-23T03:59:18;9.35;;;4.10;;
86321;SDS011;76978;42.798;23.336;2024-03-23T04:01:45;8.73;;;3.80;;
86321;SDS011;76978;42.798;23.336;2024-03-23T04:04:10;7.32;;;3.53;;
86321;SDS011;76978;42.798;23.336;2024-03-23T04:06:36;6.75;;;2.90;;
86321;SDS011;76978;42.798;23.336;2024-03-23T04:09:02;4.97;;;2.75;;
86321;SDS011;76978;42.798;23.336;2024-03-23T04:11:27;4.32;;;2.65;;
86321;SDS011;76978;42.798;23.336;2024-03-23T04:13:53;6.20;;;3.35;;
86321;SDS011;76978;42.798;23.336;2024-03-23T04:16:27;4.30;;;2.67;;
86321;SDS011;76978;42.798;23.336;2024-03-23T04:18:53;7.32;;;3.65;;
86321;SDS011;76978;42.798;23.336;2024-03-23T04:21:19;6.53;;;3.60;;
86321;SDS011;76978;42.798;23.336;2024-03-23T04:23:45;7.53;;;3.20;;
86321;SDS011;76978;42.798;23.336;2024-03-23T04:26:10;8.30;;;3.45;;
86321;SDS011;76978;42.798;23.336;2024-03-23T04:28:36;6.00;;;3.08;;
86321;SDS011;76978;42.798;23.336;2024-03-23T04:31:04;4.35;;;2.78;;
86321;SDS011;76978;42.798;23.336;2024-03-23T04:33:30;9.05;;;3.03;;
86321;SDS011;76978;42.798;23.336;2024-03-23T04:35:56;8.32;;;2.72;;
86321;SDS011;76978;42.798;23.336;2024-03-23T04:38:21;4.25;;;2.88;;
86321;SDS011;76978;42.798;23.336;2024-03-23T04:40:56;6.75;;;3.05;;
86321;SDS011;76978;42.798;23.336;2024-03-23T04:43:27;5.32;;;2.97;;
86321;SDS011;76978;42.798;23.336;2024-03-23T04:45:53;5.45;;;2.42;;
86321;SDS011;76978;42.798;23.336;2024-03-23T04:48:21;4.38;;;2.80;;
86321;SDS011;76978;42.798;23.336;2024-03-23T04:50:48;4.90;;;2.90;;
86321;SDS011;76978;42.798;23.336;2024-03-23T04:53:14;6.57;;;2.63;;
86321;SDS011;76978;42.798;23.336;2024-03-23T04:55:40;4.80;;;2.67;;
86321;SDS011;76978;42.798;23.336;2024-03-23T04:58:06;5.65;;;2.75;;
86321;SDS011;76978;42.798;23.336;2024-03-23T05:00:31;6.07;;;3.38;;
86321;SDS011;76978;42.798;23.336;2024-03-23T05:02:57;7.53;;;4.18;;
86321;SDS011;76978;42.798;23.336;2024-03-23T05:05:22;10.63;;;5.38;;
86321;SDS011;76978;42.798;23.336;2024-03-23T05:07:48;19.08;;;6.90;;
86321;SDS011;76978;42.798;23.336;2024-03-23T05:10:13;18.58;;;6.50;;
86321;SDS011;76978;42.798;23.336;2024-03-23T05:12:39;21.83;;;7.90;;
86321;SDS011;76978;42.798;23.336;2024-03-23T05:15:05;23.98;;;9.07;;
86321;SDS011;76978;42.798;23.336;2024-03-23T05:17:32;19.13;;;8.43;;
86321;SDS011;76978;42.798;23.336;2024-03-23T05:19:58;14.38;;;7.82;;
86321;SDS011;76978;42.798;23.336;2024-03-23T05:22:23;18.40;;;7.65;;
86321;SDS011;76978;42.798;23.336;2024-03-23T05:24:49;19.83;;;7.90;;
86321;SDS011;76978;42.798;23.336;2024-03-23T05:27:15;14.55;;;6.18;;
86321;SDS011;76978;42.798;23.336;2024-03-23T05:29:40;22.98;;;8.00;;
86321;SDS011;76978;42.798;23.336;2024-03-23T05:32:06;14.00;;;6.80;;
86321;SDS011;76978;42.798;23.336;2024-03-23T05:34:31;17.67;;;8.05;;
86321;SDS011;76978;42.798;23.336;2024-03-23T05:36:57;20.75;;;7.68;;
86321;SDS011;76978;42.798;23.336;2024-03-23T05:39:22;13.00;;;6.60;;
86321;SDS011;76978;42.798;23.336;2024-03-23T05:41:48;14.25;;;7.10;;
86321;SDS011;76978;42.798;23.336;2024-03-23T05:44:14;12.45;;;6.32;;
86321;SDS011;76978;42.798;23.336;2024-03-23T05:46:40;14.38;;;5.95;;
86321;SDS011;76978;42.798;23.336;2024-03-23T05:49:06;16.05;;;6.82;;
86321;SDS011;76978;42.798;23.336;2024-03-23T05:51:31;17.58;;;8.20;;
86321;SDS011;76978;42.798;23.336;2024-03-23T05:53:57;18.02;;;7.22;;
86321;SDS011;76978;42.798;23.336;2024-03-23T05:56:22;12.93;;;6.50;;
86321;SDS011;76978;42.798;23.336;2024-03-23T05:58:47;11.35;;;6.47;;
86321;SDS011;76978;42.798;23.336;2024-03-23T06:01:13;19.35;;;9.65;;
86321;SDS011;76978;42.798;23.336;2024-03-23T06:03:38;11.00;;;5.25;;
86321;SDS011;76978;42.798;23.336;2024-03-23T06:06:04;11.63;;;6.82;;
86321;SDS011;76978;42.798;23.336;2024-03-23T06:08:30;17.30;;;8.52;;
86321;SDS011;76978;42.798;23.336;2024-03-23T06:10:55;17.33;;;7.55;;
86321;SDS011;76978;42.798;23.336;2024-03-23T06:13:21;19.58;;;7.45;;
86321;SDS011;76978;42.798;23.336;2024-03-23T06:15:54;13.13;;;6.43;;
86321;SDS011;76978;42.798;23.336;2024-03-23T06:18:20;11.30;;;6.38;;
86321;SDS011;76978;42.798;23.336;2024-03-23T06:20:48;16.35;;;7.15;;
86321;SDS011;76978;42.798;23.336;2024-03-23T06:23:13;12.63;;;6.70;;
86321;SDS011;76978;42.798;23.336;2024-03-23T06:25:39;18.35;;;8.25;;
86321;SDS011;76978;42.798;23.336;2024-03-23T06:28:05;16.23;;;8.27;;
86321;SDS011;76978;42.798;23.336;2024-03-23T06:30:31;15.18;;;7.65;;
86321;SDS011;76978;42.798;23.336;2024-03-23T06:32:57;14.27;;;7.63;;
86321;SDS011;76978;42.798;23.336;2024-03-23T06:35:22;22.45;;;9.25;;
86321;SDS011;76978;42.798;23.336;2024-03-23T06:37:48;17.30;;;7.60;;
86321;SDS011;76978;42.798;23.336;2024-03-23T06:40:13;14.48;;;8.13;;
86321;SDS011;76978;42.798;23.336;2024-03-23T06:42:38;16.92;;;7.30;;
86321;SDS011;76978;42.798;23.336;2024-03-23T06:45:05;14.15;;;7.20;;
86321;SDS011;76978;42.798;23.336;2024-03-23T06:47:30;15.98;;;8.32;;
86321;SDS011;76978;42.798;23.336;2024-03-23T06:49:56;18.42;;;7.78;;
86321;SDS011;76978;42.798;23.336;2024-03-23T06:52:22;21.20;;;7.90;;
86321;SDS011;76978;42.798;23.336;2024-03-23T06:54:47;17.48;;;8.18;;
86321;SDS011;76978;42.798;23.336;2024-03-23T06:57:13;17.65;;;8.20;;
86321;SDS011;76978;42.798;23.336;2024-03-23T06:59:39;14.00;;;7.63;;
86321;SDS011;76978;42.798;23.336;2024-03-23T07:02:05;17.55;;;7.75;;
86321;SDS011;76978;42.798;23.336;2024-03-23T07:04:33;14.45;;;8.55;;
86321;SDS011;76978;42.798;23.336;2024-03-23T07:06:59;15.88;;;8.50;;
86321;SDS011;76978;42.798;23.336;2024-03-23T07:09:24;18.38;;;7.82;;
86321;SDS011;76978;42.798;23.336;2024-03-23T07:11:51;15.52;;;7.88;;
86321;SDS011;76978;42.798;23.336;2024-03-23T07:14:19;15.70;;;7.90;;
86321;SDS011;76978;42.798;23.336;2024-03-23T07:16:44;14.00;;;7.32;;
86321;SDS011;76978;42.798;23.336;2024-03-23T07:19:10;17.08;;;8.80;;
86321;SDS011;76978;42.798;23.336;2024-03-23T07:21:35;17.27;;;9.00;;
86321;SDS011;76978;42.798;23.336;2024-03-23T07:24:01;15.65;;;8.52;;
86321;SDS011;76978;42.798;23.336;2024-03-23T07:26:26;14.85;;;7.10;;
86321;SDS011;76978;42.798;23.336;2024-03-23T07:28:51;12.00;;;6.95;;
86321;SDS011;76978;42.798;23.336;2024-03-23T07:31:18;19.52;;;7.60;;
86321;SDS011;76978;42.798;23.336;2024-03-23T07:33:48;14.13;;;7.57;;
86321;SDS011;76978;42.798;23.336;2024-03-23T07:36:16;14.00;;;7.55;;
86321;SDS011;76978;42.798;23.336;2024-03-23T07:38:42;16.52;;;7.57;;
86321;SDS011;76978;42.798;23.336;2024-03-23T07:41:10;14.07;;;7.88;;
86321;SDS011;76978;42.798;23.336;2024-03-23T07:43:37;17.90;;;8.82;;
86321;SDS011;76978;42.798;23.336;2024-03-23T07:46:06;18.02;;;8.15;;
86321;SDS011;76978;42.798;23.336;2024-03-23T07:48:31;15.65;;;8.75;;
86321;SDS011;76978;42.798;23.336;2024-03-23T07:51:04;12.68;;;7.60;;
86321;SDS011;76978;42.798;23.336;2024-03-23T07:53:34;19.20;;;8.48;;
86321;SDS011;76978;42.798;23.336;2024-03-23T07:56:02;13.32;;;7.72;;
86321;SDS011;76978;42.798;23.336;2024-03-23T07:58:31;15.18;;;8.10;;
86321;SDS011;76978;42.798;23.336;2024-03-23T08:00:56;12.50;;;7.13;;
86321;SDS011;76978;42.798;23.336;2024-03-23T08:03:28;15.65;;;8.27;;
86321;SDS011;76978;42.798;23.336;2024-03-23T08:05:53;13.07;;;7.72;;
86321;SDS011;76978;42.798;23.336;2024-03-23T08:08:19;13.82;;;7.65;;
86321;SDS011;76978;42.798;23.336;2024-03-23T08:10:48;16.50;;;7.85;;
86321;SDS011;76978;42.798;23.336;2024-03-23T08:13:17;15.48;;;7.65;;
86321;SDS011;76978;42.798;23.336;2024-03-23T08:15:42;14.50;;;7.78;;
86321;SDS011;76978;42.798;23.336;2024-03-23T08:18:08;16.38;;;7.70;;
86321;SDS011;76978;42.798;23.336;2024-03-23T08:20:35;16.20;;;7.43;;
86321;SDS011;76978;42.798;23.336;2024-03-23T08:23:01;13.93;;;6.20;;
86321;SDS011;76978;42.798;23.336;2024-03-23T08:25:26;12.55;;;6.85;;
86321;SDS011;76978;42.798;23.336;2024-03-23T08:27:52;11.30;;;6.25;;
86321;SDS011;76978;42.798;23.336;2024-03-23T08:30:17;16.67;;;7.25;;
86321;SDS011;76978;42.798;23.336;2024-03-23T08:32:43;19.60;;;10.93;;
86321;SDS011;76978;42.798;23.336;2024-03-23T08:35:09;13.75;;;6.55;;
86321;SDS011;76978;42.798;23.336;2024-03-23T08:37:34;32.15;;;8.32;;
86321;SDS011;76978;42.798;23.336;2024-03-23T08:39:59;9.65;;;5.55;;
86321;SDS011;76978;42.798;23.336;2024-03-23T08:42:25;11.70;;;5.55;;
86321;SDS011;76978;42.798;23.336;2024-03-23T08:44:50;10.45;;;5.97;;
86321;SDS011;76978;42.798;23.336;2024-03-23T08:47:16;10.45;;;5.50;;
86321;SDS011;76978;42.798;23.336;2024-03-23T08:49:41;8.27;;;5.20;;
86321;SDS011;76978;42.798;23.336;2024-03-23T08:52:07;8.82;;;5.20;;
86321;SDS011;76978;42.798;23.336;2024-03-23T08:54:33;10.30;;;5.40;;
86321;SDS011;76978;42.798;23.336;2024-03-23T08:56:59;7.70;;;4.68;;
86321;SDS011;76978;42.798;23.336;2024-03-23T08:59:24;10.95;;;6.63;;
86321;SDS011;76978;42.798;23.336;2024-03-23T09:01:50;11.02;;;5.43;;
86321;SDS011;76978;42.798;23.336;2024-03-23T09:04:15;9.45;;;5.25;;
86321;SDS011;76978;42.798;23.336;2024-03-23T09:06:43;14.45;;;6.57;;
86321;SDS011;76978;42.798;23.336;2024-03-23T09:09:09;8.48;;;5.85;;
86321;SDS011;76978;42.798;23.336;2024-03-23T09:11:34;10.57;;;5.75;;
86321;SDS011;76978;42.798;23.336;2024-03-23T09:14:00;10.10;;;5.57;;
86321;SDS011;76978;42.798;23.336;2024-03-23T09:16:25;9.52;;;6.05;;
86321;SDS011;76978;42.798;23.336;2024-03-23T09:18:51;12.82;;;5.55;;
86321;SDS011;76978;42.798;23.336;2024-03-23T09:21:17;14.85;;;5.93;;
86321;SDS011;76978;42.798;23.336;2024-03-23T09:23:45;9.40;;;5.15;;
86321;SDS011;76978;42.798;23.336;2024-03-23T09:26:11;7.32;;;4.50;;
86321;SDS011;76978;42.798;23.336;2024-03-23T09:28:37;8.70;;;4.95;;
86321;SDS011;76978;42.798;23.336;2024-03-23T09:31:06;7.38;;;4.93;;
86321;SDS011;76978;42.798;23.336;2024-03-23T09:33:36;8.35;;;5.15;;
86321;SDS011;76978;42.798;23.336;2024-03-23T09:36:04;9.85;;;5.07;;
86321;SDS011;76978;42.798;23.336;2024-03-23T09:38:30;8.80;;;5.40;;
86321;SDS011;76978;42.798;23.336;2024-03-23T09:40:56;8.68;;;4.68;;
86321;SDS011;76978;42.798;23.336;2024-03-23T09:43:22;7.82;;;4.65;;
86321;SDS011;76978;42.798;23.336;2024-03-23T09:45:47;9.48;;;5.00;;
86321;SDS011;76978;42.798;23.336;2024-03-23T09:48:14;9.18;;;4.47;;
86321;SDS011;76978;42.798;23.336;2024-03-23T09:50:41;9.38;;;4.97;;
86321;SDS011;76978;42.798;23.336;2024-03-23T09:53:08;10.43;;;4.57;;
86321;SDS011;76978;42.798;23.336;2024-03-23T09:55:35;7.22;;;3.95;;
86321;SDS011;76978;42.798;23.336;2024-03-23T09:58:01;9.40;;;3.85;;
86321;SDS011;76978;42.798;23.336;2024-03-23T10:00:27;11.05;;;5.38;;
86321;SDS011;76978;42.798;23.336;2024-03-23T10:02:55;8.35;;;4.65;;
86321;SDS011;76978;42.798;23.336;2024-03-23T10:05:21;9.57;;;5.28;;
86321;SDS011;76978;42.798;23.336;2024-03-23T10:07:48;7.22;;;3.90;;
86321;SDS011;76978;42.798;23.336;2024-03-23T10:10:17;10.80;;;5.00;;
86321;SDS011;76978;42.798;23.336;2024-03-23T10:12:46;7.75;;;4.55;;
86321;SDS011;76978;42.798;23.336;2024-03-23T10:15:19;7.82;;;4.13;;
86321;SDS011;76978;42.798;23.336;2024-03-23T10:17:45;7.80;;;4.05;;
86321;SDS011;76978;42.798;23.336;2024-03-23T10:20:22;9.55;;;4.82;;
86321;SDS011;76978;42.798;23.336;2024-03-23T10:22:48;12.43;;;4.78;;
86321;SDS011;76978;42.798;23.336;2024-03-23T10:25:17;11.15;;;4.70;;
86321;SDS011;76978;42.798;23.336;2024-03-23T10:27:57;9.20;;;4.20;;
86321;SDS011;76978;42.798;23.336;2024-03-23T10:30:25;11.98;;;4.38;;
86321;SDS011;76978;42.798;23.336;2024-03-23T10:33:01;10.18;;;4.85;;
86321;SDS011;76978;42.798;23.336;2024-03-23T10:35:32;8.52;;;4.00;;
86321;SDS011;76978;42.798;23.336;2024-03-23T10:37:57;9.35;;;3.85;;
86321;SDS011;76978;42.798;23.336;2024-03-23T10:40:23;8.40;;;4.07;;
86321;SDS011;76978;42.798;23.336;2024-03-23T10:42:49;6.20;;;2.75;;
86321;SDS011;76978;42.798;23.336;2024-03-23T10:45:17;7.57;;;4.00;;
86321;SDS011;76978;42.798;23.336;2024-03-23T10:47:42;9.18;;;3.47;;
86321;SDS011;76978;42.798;23.336;2024-03-23T10:50:08;5.40;;;3.00;;
86321;SDS011;76978;42.798;23.336;2024-03-23T10:52:34;4.97;;;2.78;;
86321;SDS011;76978;42.798;23.336;2024-03-23T10:55:01;7.25;;;3.10;;
86321;SDS011;76978;42.798;23.336;2024-03-23T10:57:41;8.52;;;3.75;;
86321;SDS011;76978;42.798;23.336;2024-03-23T11:00:10;6.30;;;2.85;;
86321;SDS011;76978;42.798;23.336;2024-03-23T11:02:37;7.38;;;2.90;;
86321;SDS011;76978;42.798;23.336;2024-03-23T11:05:27;7.82;;;2.90;;
86321;SDS011;76978;42.798;23.336;2024-03-23T11:07:53;9.18;;;3.28;;
86321;SDS011;76978;42.798;23.336;2024-03-23T11:10:26;5.28;;;3.10;;
86321;SDS011;76978;42.798;23.336;2024-03-23T11:12:54;7.13;;;3.33;;
86321;SDS011;76978;42.798;23.336;2024-03-23T11:15:19;6.70;;;2.95;;
86321;SDS011;76978;42.798;23.336;2024-03-23T11:20:35;6.53;;;3.05;;
86321;SDS011;76978;42.798;23.336;2024-03-23T11:23:01;5.00;;;2.28;;
86321;SDS011;76978;42.798;23.336;2024-03-23T11:25:27;5.15;;;2.75;;
86321;SDS011;76978;42.798;23.336;2024-03-23T11:28:08;3.65;;;2.33;;
86321;SDS011;76978;42.798;23.336;2024-03-23T11:30:36;5.50;;;2.30;;
86321;SDS011;76978;42.798;23.336;2024-03-23T11:33:03;9.38;;;2.35;;
86321;SDS011;76978;42.798;23.336;2024-03-23T11:40:40;5.82;;;3.10;;
86321;SDS011;76978;42.798;23.336;2024-03-23T11:46:11;5.93;;;2.80;;
86321;SDS011;76978;42.798;23.336;2024-03-23T11:48:54;7.88;;;2.75;;
86321;SDS011;76978;42.798;23.336;2024-03-23T11:51:30;8.85;;;2.78;;
86321;SDS011;76978;42.798;23.336;2024-03-23T11:54:07;8.40;;;3.00;;
86321;SDS011;76978;42.798;23.336;2024-03-23T11:56:53;4.03;;;2.38;;
86321;SDS011;76978;42.798;23.336;2024-03-23T12:02:07;4.50;;;2.10;;
86321;SDS011;76978;42.798;23.336;2024-03-23T12:04:33;7.18;;;2.47;;
86321;SDS011;76978;42.798;23.336;2024-03-23T12:07:14;5.80;;;2.53;;
86321;SDS011;76978;42.798;23.336;2024-03-23T12:12:13;3.72;;;2.33;;
86321;SDS011;76978;42.798;23.336;2024-03-23T12:14:41;8.52;;;2.80;;
86321;SDS011;76978;42.798;23.336;2024-03-23T12:17:13;8.90;;;2.40;;
86321;SDS011;76978;42.798;23.336;2024-03-23T12:19:40;4.00;;;2.67;;
86321;SDS011;76978;42.798;23.336;2024-03-23T12:22:07;6.65;;;2.30;;
86321;SDS011;76978;42.798;23.336;2024-03-23T12:24:33;3.70;;;2.10;;
86321;SDS011;76978;42.798;23.336;2024-03-23T12:27:02;5.32;;;2.63;;
86321;SDS011;76978;42.798;23.336;2024-03-23T12:29:32;4.35;;;2.33;;
86321;SDS011;76978;42.798;23.336;2024-03-23T12:32:00;6.60;;;2.42;;
86321;SDS011;76978;42.798;23.336;2024-03-23T12:34:27;3.60;;;2.08;;
86321;SDS011;76978;42.798;23.336;2024-03-23T12:36:53;3.72;;;2.05;;
86321;SDS011;76978;42.798;23.336;2024-03-23T12:39:19;3.88;;;1.88;;
86321;SDS011;76978;42.798;23.336;2024-03-23T12:41:46;5.22;;;2.25;;
86321;SDS011;76978;42.798;23.336;2024-03-23T12:44:12;5.35;;;2.20;;
86321;SDS011;76978;42.798;23.336;2024-03-23T12:46:38;4.18;;;2.25;;
86321;SDS011;76978;42.798;23.336;2024-03-23T12:49:03;3.28;;;2.10;;
86321;SDS011;76978;42.798;23.336;2024-03-23T12:51:29;3.28;;;1.60;;
86321;SDS011;76978;42.798;23.336;2024-03-23T12:53:54;4.13;;;2.00;;
86321;SDS011;76978;42.798;23.336;2024-03-23T12:56:20;4.43;;;2.00;;
86321;SDS011;76978;42.798;23.336;2024-03-23T12:58:45;4.00;;;1.85;;
86321;SDS011;76978;42.798;23.336;2024-03-23T13:01:15;8.18;;;2.67;;
86321;SDS011;76978;42.798;23.336;2024-03-23T13:03:40;4.18;;;2.10;;
86321;SDS011;76978;42.798;23.336;2024-03-23T13:06:06;4.22;;;1.63;;
86321;SDS011;76978;42.798;23.336;2024-03-23T13:08:32;2.42;;;1.40;;
86321;SDS011;76978;42.798;23.336;2024-03-23T13:10:58;2.33;;;1.33;;
86321;SDS011;76978;42.798;23.336;2024-03-23T13:13:23;1.58;;;1.05;;
86321;SDS011;76978;42.798;23.336;2024-03-23T13:15:52;2.47;;;1.40;;
86321;SDS011;76978;42.798;23.336;2024-03-23T13:18:17;2.83;;;1.25;;
86321;SDS011;76978;42.798;23.336;2024-03-23T13:20:43;2.13;;;1.27;;
86321;SDS011;76978;42.798;23.336;2024-03-23T13:23:08;1.50;;;1.00;;
86321;SDS011;76978;42.798;23.336;2024-03-23T13:25:33;2.95;;;1.20;;
86321;SDS011;76978;42.798;23.336;2024-03-23T13:27:59;2.75;;;1.40;;
86321;SDS011;76978;42.798;23.336;2024-03-23T13:30:26;1.67;;;1.30;;
86321;SDS011;76978;42.798;23.336;2024-03-23T13:32:51;2.53;;;1.10;;
86321;SDS011;76978;42.798;23.336;2024-03-23T13:35:17;2.60;;;1.30;;
86321;SDS011;76978;42.798;23.336;2024-03-23T13:37:43;3.33;;;1.58;;
86321;SDS011;76978;42.798;23.336;2024-03-23T13:40:09;2.75;;;1.25;;
86321;SDS011;76978;42.798;23.336;2024-03-23T13:42:35;4.35;;;1.65;;
86321;SDS011;76978;42.798;23.336;2024-03-23T13:45:02;3.88;;;1.70;;
86321;SDS011;76978;42.798;23.336;2024-03-23T13:47:28;2.50;;;1.42;;
86321;SDS011;76978;42.798;23.336;2024-03-23T13:49:54;2.30;;;1.30;;
86321;SDS011;76978;42.798;23.336;2024-03-23T13:55:09;2.10;;;1.30;;
86321;SDS011;76978;42.798;23.336;2024-03-23T13:57:39;2.47;;;1.15;;
86321;SDS011;76978;42.798;23.336;2024-03-23T14:00:06;1.65;;;1.05;;
86321;SDS011;76978;42.798;23.336;2024-03-23T14:02:34;2.20;;;1.40;;
86321;SDS011;76978;42.798;23.336;2024-03-23T14:05:02;2.15;;;1.30;;
86321;SDS011;76978;42.798;23.336;2024-03-23T14:07:28;1.85;;;1.17;;
86321;SDS011;76978;42.798;23.336;2024-03-23T14:09:53;1.33;;;1.00;;
86321;SDS011;76978;42.798;23.336;2024-03-23T14:12:20;3.03;;;1.40;;
86321;SDS011;76978;42.798;23.336;2024-03-23T14:14:46;1.95;;;1.17;;
86321;SDS011;76978;42.798;23.336;2024-03-23T14:17:11;2.65;;;1.08;;
86321;SDS011;76978;42.798;23.336;2024-03-23T14:19:39;1.65;;;1.27;;
86321;SDS011;76978;42.798;23.336;2024-03-23T14:22:04;1.40;;;1.10;;
86321;SDS011;76978;42.798;23.336;2024-03-23T14:24:32;2.20;;;1.30;;
86321;SDS011;76978;42.798;23.336;2024-03-23T14:26:58;2.33;;;1.40;;
86321;SDS011;76978;42.798;23.336;2024-03-23T14:29:23;4.00;;;1.52;;
86321;SDS011;76978;42.798;23.336;2024-03-23T14:31:49;1.98;;;1.35;;
86321;SDS011;76978;42.798;23.336;2024-03-23T14:34:15;1.63;;;1.30;;
86321;SDS011;76978;42.798;23.336;2024-03-23T14:36:40;5.18;;;1.55;;
86321;SDS011;76978;42.798;23.336;2024-03-23T14:39:05;2.35;;;1.40;;
86321;SDS011;76978;42.798;23.336;2024-03-23T14:41:31;4.78;;;1.55;;
86321;SDS011;76978;42.798;23.336;2024-03-23T14:43:57;3.47;;;1.42;;
86321;SDS011;76978;42.798;23.336;2024-03-23T14:46:22;1.98;;;1.30;;
86321;SDS011;76978;42.798;23.336;2024-03-23T14:48:48;2.72;;;2.00;;
86321;SDS011;76978;42.798;23.336;2024-03-23T14:51:14;4.97;;;1.60;;
86321;SDS011;76978;42.798;23.336;2024-03-23T14:53:40;2.25;;;1.42;;
86321;SDS011;76978;42.798;23.336;2024-03-23T14:56:07;3.88;;;1.73;;
86321;SDS011;76978;42.798;23.336;2024-03-23T14:58:34;4.60;;;1.80;;
86321;SDS011;76978;42.798;23.336;2024-03-23T15:01:03;3.15;;;1.67;;
86321;SDS011;76978;42.798;23.336;2024-03-23T15:03:30;5.90;;;2.13;;
86321;SDS011;76978;42.798;23.336;2024-03-23T15:05:58;2.83;;;1.70;;
86321;SDS011;76978;42.798;23.336;2024-03-23T15:08:27;2.58;;;1.63;;
86321;SDS011;76978;42.798;23.336;2024-03-23T15:10:58;3.20;;;2.00;;
86321;SDS011;76978;42.798;23.336;2024-03-23T15:13:24;8.05;;;4.47;;
86321;SDS011;76978;42.798;23.336;2024-03-23T15:15:49;4.88;;;2.20;;
86321;SDS011;76978;42.798;23.336;2024-03-23T15:18:16;3.78;;;1.88;;
86321;SDS011;76978;42.798;23.336;2024-03-23T15:20:57;4.90;;;2.03;;
86321;SDS011;76978;42.798;23.336;2024-03-23T15:23:31;2.17;;;1.88;;
86321;SDS011;76978;42.798;23.336;2024-03-23T15:25:58;3.67;;;2.13;;
86321;SDS011;76978;42.798;23.336;2024-03-23T15:28:25;3.10;;;2.15;;
86321;SDS011;76978;42.798;23.336;2024-03-23T15:31:06;4.22;;;1.83;;
86321;SDS011;76978;42.798;23.336;2024-03-23T15:33:32;4.13;;;2.03;;
86321;SDS011;76978;42.798;23.336;2024-03-23T15:36:01;8.07;;;2.28;;
86321;SDS011;76978;42.798;23.336;2024-03-23T15:38:27;6.78;;;3.15;;